sensor_id;sensor_type;location;lat;lon;timestamp;temperature;humidity
3542;DHT22;1785;47.388;8.538;2022-07-25T00:01:22;28.90;98.90
3542;DHT22;1785;47.388;8.538;2022-07-25T00:03:48;28.90;98.70
3542;DHT22;1785;47.388;8.538;2022-07-25T00:06:14;28.60;98.70
3542;DHT22;1785;47.388;8.538;2022-07-25T00:08:41;28.60;98.90
3542;DHT22;1785;47.388;8.538;2022-07-25T00:11:07;28.70;99.00
3542;DHT22;1785;47.388;8.538;2022-07-25T00:13:33;28.80;98.90
3542;DHT22;1785;47.388;8.538;2022-07-25T00:16:00;28.80;98.70
3542;DHT22;1785;47.388;8.538;2022-07-25T00:18:26;28.80;98.60
3542;DHT22;1785;47.388;8.538;2022-07-25T00:20:52;28.80;98.80
3542;DHT22;1785;47.388;8.538;2022-07-25T00:23:18;28.60;99.30
3542;DHT22;1785;47.388;8.538;2022-07-25T00:25:44;28.60;99.60
3542;DHT22;1785;47.388;8.538;2022-07-25T00:28:11;28.60;99.70
3542;DHT22;1785;47.388;8.538;2022-07-25T00:30:37;28.70;99.90
3542;DHT22;1785;47.388;8.538;2022-07-25T00:33:03;28.70;99.90
3542;DHT22;1785;47.388;8.538;2022-07-25T00:35:29;28.60;99.90
3542;DHT22;1785;47.388;8.538;2022-07-25T00:37:55;28.50;99.90
3542;DHT22;1785;47.388;8.538;2022-07-25T00:40:22;28.50;99.90
3542;DHT22;1785;47.388;8.538;2022-07-25T00:42:48;28.30;99.90
3542;DHT22;1785;47.388;8.538;2022-07-25T00:45:15;27.70;99.90
3542;DHT22;1785;47.388;8.538;2022-07-25T00:47:41;27.50;99.90
3542;DHT22;1785;47.388;8.538;2022-07-25T00:50:07;27.50;99.90
3542;DHT22;1785;47.388;8.538;2022-07-25T00:52:34;27.30;99.90
3542;DHT22;1785;47.388;8.538;2022-07-25T00:55:00;27.20;99.90
3542;DHT22;1785;47.388;8.538;2022-07-25T00:57:26;27.20;99.90
3542;DHT22;1785;47.388;8.538;2022-07-25T00:59:52;27.50;99.90
3542;DHT22;1785;47.388;8.538;2022-07-25T01:02:19;27.30;99.90
3542;DHT22;1785;47.388;8.538;2022-07-25T01:04:45;26.90;99.90
3542;DHT22;1785;47.388;8.538;2022-07-25T01:07:12;26.80;99.90
3542;DHT22;1785;47.388;8.538;2022-07-25T01:09:38;26.80;99.90
3542;DHT22;1785;47.388;8.538;2022-07-25T01:12:05;26.80;99.90
3542;DHT22;1785;47.388;8.538;2022-07-25T01:14:31;27.00;99.90
3542;DHT22;1785;47.388;8.538;2022-07-25T01:16:57;27.30;99.90
3542;DHT22;1785;47.388;8.538;2022-07-25T01:19:24;27.50;99.90
3542;DHT22;1785;47.388;8.538;2022-07-25T01:21:51;27.50;99.90
3542;DHT22;1785;47.388;8.538;2022-07-25T01:24:17;27.40;99.90
3542;DHT22;1785;47.388;8.538;2022-07-25T01:26:43;27.40;99.90
3542;DHT22;1785;47.388;8.538;2022-07-25T01:29:09;27.50;99.90
3542;DHT22;1785;47.388;8.538;2022-07-25T01:31:35;27.70;99.90
3542;DHT22;1785;47.388;8.538;2022-07-25T01:34:01;27.50;99.90
3542;DHT22;1785;47.388;8.538;2022-07-25T01:36:27;27.00;99.90
3542;DHT22;1785;47.388;8.538;2022-07-25T01:38:54;26.80;99.90
3542;DHT22;1785;47.388;8.538;2022-07-25T01:41:20;26.90;99.90
3542;DHT22;1785;47.388;8.538;2022-07-25T01:43:46;27.10;99.90
3542;DHT22;1785;47.388;8.538;2022-07-25T01:46:12;27.00;99.90
3542;DHT22;1785;47.388;8.538;2022-07-25T01:48:39;26.90;99.90
3542;DHT22;1785;47.388;8.538;2022-07-25T01:51:06;26.70;99.90
3542;DHT22;1785;47.388;8.538;2022-07-25T01:53:32;26.60;99.90
3542;DHT22;1785;47.388;8.538;2022-07-25T01:55:59;26.70;99.90
3542;DHT22;1785;47.388;8.538;2022-07-25T01:58:25;26.60;99.90
3542;DHT22;1785;47.388;8.538;2022-07-25T02:00:51;26.60;99.90
3542;DHT22;1785;47.388;8.538;2022-07-25T02:03:18;26.90;99.90
3542;DHT22;1785;47.388;8.538;2022-07-25T02:05:56;27.00;99.90
3542;DHT22;1785;47.388;8.538;2022-07-25T02:08:22;27.10;99.90
3542;DHT22;1785;47.388;8.538;2022-07-25T02:10:48;27.00;99.90
3542;DHT22;1785;47.388;8.538;2022-07-25T02:13:15;27.00;99.90
3542;DHT22;1785;47.388;8.538;2022-07-25T02:15:41;27.30;99.90
3542;DHT22;1785;47.388;8.538;2022-07-25T02:18:07;27.30;99.90
3542;DHT22;1785;47.388;8.538;2022-07-25T02:20:33;27.20;99.90
3542;DHT22;1785;47.388;8.538;2022-07-25T02:22:59;27.30;99.90
3542;DHT22;1785;47.388;8.538;2022-07-25T02:25:26;27.30;99.90
3542;DHT22;1785;47.388;8.538;2022-07-25T02:27:52;27.10;99.90
3542;DHT22;1785;47.388;8.538;2022-07-25T02:30:19;27.20;99.90
3542;DHT22;1785;47.388;8.538;2022-07-25T02:32:45;27.20;99.90
3542;DHT22;1785;47.388;8.538;2022-07-25T02:35:12;27.10;99.90
3542;DHT22;1785;47.388;8.538;2022-07-25T02:37:38;26.50;99.90
3542;DHT22;1785;47.388;8.538;2022-07-25T02:40:08;26.60;99.90
3542;DHT22;1785;47.388;8.538;2022-07-25T02:42:34;26.50;99.90
3542;DHT22;1785;47.388;8.538;2022-07-25T02:45:01;26.10;99.90
3542;DHT22;1785;47.388;8.538;2022-07-25T02:47:27;25.90;99.90
3542;DHT22;1785;47.388;8.538;2022-07-25T02:49:54;26.00;99.90
3542;DHT22;1785;47.388;8.538;2022-07-25T02:52:20;25.70;99.90
3542;DHT22;1785;47.388;8.538;2022-07-25T02:54:46;25.70;99.90
3542;DHT22;1785;47.388;8.538;2022-07-25T02:57:12;25.60;99.90
3542;DHT22;1785;47.388;8.538;2022-07-25T02:59:38;25.50;99.90
3542;DHT22;1785;47.388;8.538;2022-07-25T03:02:04;25.60;99.90
3542;DHT22;1785;47.388;8.538;2022-07-25T03:04:31;25.70;99.90
3542;DHT22;1785;47.388;8.538;2022-07-25T03:06:58;25.70;99.90
3542;DHT22;1785;47.388;8.538;2022-07-25T03:09:24;25.60;99.90
3542;DHT22;1785;47.388;8.538;2022-07-25T03:11:50;25.70;99.90
3542;DHT22;1785;47.388;8.538;2022-07-25T03:14:16;26.00;99.90
3542;DHT22;1785;47.388;8.538;2022-07-25T03:16:42;25.80;99.90
3542;DHT22;1785;47.388;8.538;2022-07-25T03:19:08;25.80;99.90
3542;DHT22;1785;47.388;8.538;2022-07-25T03:21:37;26.10;99.90
3542;DHT22;1785;47.388;8.538;2022-07-25T03:24:04;26.20;99.90
3542;DHT22;1785;47.388;8.538;2022-07-25T03:26:30;26.40;99.90
3542;DHT22;1785;47.388;8.538;2022-07-25T03:28:56;26.50;99.90
3542;DHT22;1785;47.388;8.538;2022-07-25T03:31:22;26.50;99.90
3542;DHT22;1785;47.388;8.538;2022-07-25T03:33:48;26.60;99.90
3542;DHT22;1785;47.388;8.538;2022-07-25T03:36:15;26.60;99.90
3542;DHT22;1785;47.388;8.538;2022-07-25T03:38:41;26.60;99.90
3542;DHT22;1785;47.388;8.538;2022-07-25T03:41:07;26.60;99.90
3542;DHT22;1785;47.388;8.538;2022-07-25T03:43:34;26.60;99.90
3542;DHT22;1785;47.388;8.538;2022-07-25T03:46:00;26.60;99.90
3542;DHT22;1785;47.388;8.538;2022-07-25T03:48:26;26.60;99.90
3542;DHT22;1785;47.388;8.538;2022-07-25T03:50:52;26.70;99.90
3542;DHT22;1785;47.388;8.538;2022-07-25T03:53:18;26.70;99.90
3542;DHT22;1785;47.388;8.538;2022-07-25T03:55:45;26.60;99.90
3542;DHT22;1785;47.388;8.538;2022-07-25T03:58:11;26.60;99.90
3542;DHT22;1785;47.388;8.538;2022-07-25T04:00:37;26.50;99.90
3542;DHT22;1785;47.388;8.538;2022-07-25T04:03:03;26.50;99.90
3542;DHT22;1785;47.388;8.538;2022-07-25T04:05:29;26.50;99.90
3542;DHT22;1785;47.388;8.538;2022-07-25T04:07:55;26.50;99.90
3542;DHT22;1785;47.388;8.538;2022-07-25T04:10:24;26.30;99.90
3542;DHT22;1785;47.388;8.538;2022-07-25T04:12:51;25.70;99.90
3542;DHT22;1785;47.388;8.538;2022-07-25T04:15:17;25.60;99.90
3542;DHT22;1785;47.388;8.538;2022-07-25T04:17:43;25.70;99.90
3542;DHT22;1785;47.388;8.538;2022-07-25T04:20:10;25.70;99.90
3542;DHT22;1785;47.388;8.538;2022-07-25T04:22:36;25.30;99.90
3542;DHT22;1785;47.388;8.538;2022-07-25T04:25:03;25.10;99.90
3542;DHT22;1785;47.388;8.538;2022-07-25T04:27:30;25.00;99.90
3542;DHT22;1785;47.388;8.538;2022-07-25T04:29:57;25.00;99.90
3542;DHT22;1785;47.388;8.538;2022-07-25T04:32:24;24.80;99.90
3542;DHT22;1785;47.388;8.538;2022-07-25T04:34:50;24.70;99.90
3542;DHT22;1785;47.388;8.538;2022-07-25T04:37:17;24.80;99.90
3542;DHT22;1785;47.388;8.538;2022-07-25T04:39:43;24.80;99.90
3542;DHT22;1785;47.388;8.538;2022-07-25T04:42:09;24.80;99.90
3542;DHT22;1785;47.388;8.538;2022-07-25T04:44:35;24.90;99.90
3542;DHT22;1785;47.388;8.538;2022-07-25T04:47:02;24.80;99.90
3542;DHT22;1785;47.388;8.538;2022-07-25T04:49:28;24.70;99.90
3542;DHT22;1785;47.388;8.538;2022-07-25T04:51:54;24.60;99.90
3542;DHT22;1785;47.388;8.538;2022-07-25T04:54:20;24.50;99.90
3542;DHT22;1785;47.388;8.538;2022-07-25T04:56:47;24.80;99.90
3542;DHT22;1785;47.388;8.538;2022-07-25T04:59:13;24.80;99.90
3542;DHT22;1785;47.388;8.538;2022-07-25T05:01:39;24.90;99.90
3542;DHT22;1785;47.388;8.538;2022-07-25T05:04:06;25.20;99.90
3542;DHT22;1785;47.388;8.538;2022-07-25T05:06:32;25.40;99.90
3542;DHT22;1785;47.388;8.538;2022-07-25T05:08:58;25.10;99.90
3542;DHT22;1785;47.388;8.538;2022-07-25T05:11:24;25.00;99.90
3542;DHT22;1785;47.388;8.538;2022-07-25T05:13:50;24.80;99.90
3542;DHT22;1785;47.388;8.538;2022-07-25T05:16:16;24.70;99.90
3542;DHT22;1785;47.388;8.538;2022-07-25T05:18:43;24.70;99.90
3542;DHT22;1785;47.388;8.538;2022-07-25T05:21:10;25.00;99.90
3542;DHT22;1785;47.388;8.538;2022-07-25T05:23:37;25.10;99.90
3542;DHT22;1785;47.388;8.538;2022-07-25T05:26:03;25.40;99.90
3542;DHT22;1785;47.388;8.538;2022-07-25T05:28:29;25.50;99.90
3542;DHT22;1785;47.388;8.538;2022-07-25T05:30:55;25.60;99.90
3542;DHT22;1785;47.388;8.538;2022-07-25T05:33:21;25.70;99.90
3542;DHT22;1785;47.388;8.538;2022-07-25T05:35:47;25.60;99.90
3542;DHT22;1785;47.388;8.538;2022-07-25T05:38:14;25.70;99.90
3542;DHT22;1785;47.388;8.538;2022-07-25T05:40:41;25.70;99.90
3542;DHT22;1785;47.388;8.538;2022-07-25T05:43:07;25.40;99.90
3542;DHT22;1785;47.388;8.538;2022-07-25T05:45:33;25.20;99.90
3542;DHT22;1785;47.388;8.538;2022-07-25T05:48:00;25.00;99.90
3542;DHT22;1785;47.388;8.538;2022-07-25T05:50:26;24.90;99.90
3542;DHT22;1785;47.388;8.538;2022-07-25T05:52:52;25.00;99.90
3542;DHT22;1785;47.388;8.538;2022-07-25T05:55:19;25.20;99.90
3542;DHT22;1785;47.388;8.538;2022-07-25T05:57:45;25.30;99.90
3542;DHT22;1785;47.388;8.538;2022-07-25T06:00:12;25.30;99.90
3542;DHT22;1785;47.388;8.538;2022-07-25T06:02:38;25.30;99.90
3542;DHT22;1785;47.388;8.538;2022-07-25T06:05:04;25.50;99.90
3542;DHT22;1785;47.388;8.538;2022-07-25T06:07:31;25.60;99.90
3542;DHT22;1785;47.388;8.538;2022-07-25T06:09:57;25.70;99.90
3542;DHT22;1785;47.388;8.538;2022-07-25T06:12:24;25.90;99.90
3542;DHT22;1785;47.388;8.538;2022-07-25T06:14:50;25.60;99.90
3542;DHT22;1785;47.388;8.538;2022-07-25T06:17:16;25.60;99.90
3542;DHT22;1785;47.388;8.538;2022-07-25T06:19:42;25.60;99.90
3542;DHT22;1785;47.388;8.538;2022-07-25T06:22:08;25.40;99.90
3542;DHT22;1785;47.388;8.538;2022-07-25T06:24:35;25.50;99.90
3542;DHT22;1785;47.388;8.538;2022-07-25T06:27:02;25.60;99.90
3542;DHT22;1785;47.388;8.538;2022-07-25T06:29:29;25.80;99.90
3542;DHT22;1785;47.388;8.538;2022-07-25T06:31:55;26.10;99.90
3542;DHT22;1785;47.388;8.538;2022-07-25T06:34:22;26.30;99.90
3542;DHT22;1785;47.388;8.538;2022-07-25T06:36:48;26.50;99.90
3542;DHT22;1785;47.388;8.538;2022-07-25T06:39:14;26.40;99.90
3542;DHT22;1785;47.388;8.538;2022-07-25T06:41:40;26.50;99.90
3542;DHT22;1785;47.388;8.538;2022-07-25T06:44:06;26.60;99.90
3542;DHT22;1785;47.388;8.538;2022-07-25T06:46:33;26.60;99.90
3542;DHT22;1785;47.388;8.538;2022-07-25T06:48:59;26.70;99.90
3542;DHT22;1785;47.388;8.538;2022-07-25T06:51:25;26.70;99.90
3542;DHT22;1785;47.388;8.538;2022-07-25T06:53:51;26.90;99.90
3542;DHT22;1785;47.388;8.538;2022-07-25T06:56:18;27.00;99.90
3542;DHT22;1785;47.388;8.538;2022-07-25T06:58:44;27.00;99.90
3542;DHT22;1785;47.388;8.538;2022-07-25T07:01:10;27.10;99.90
3542;DHT22;1785;47.388;8.538;2022-07-25T07:03:37;27.20;99.90
3542;DHT22;1785;47.388;8.538;2022-07-25T07:06:05;27.30;99.90
3542;DHT22;1785;47.388;8.538;2022-07-25T07:08:31;27.50;99.90
3542;DHT22;1785;47.388;8.538;2022-07-25T07:10:58;27.60;99.90
3542;DHT22;1785;47.388;8.538;2022-07-25T07:13:24;27.60;99.90
3542;DHT22;1785;47.388;8.538;2022-07-25T07:15:50;27.40;99.90
3542;DHT22;1785;47.388;8.538;2022-07-25T07:18:17;27.40;99.90
3542;DHT22;1785;47.388;8.538;2022-07-25T07:20:43;27.50;99.90
3542;DHT22;1785;47.388;8.538;2022-07-25T07:23:10;27.70;99.90
3542;DHT22;1785;47.388;8.538;2022-07-25T07:25:36;27.70;99.90
3542;DHT22;1785;47.388;8.538;2022-07-25T07:28:03;27.80;99.90
3542;DHT22;1785;47.388;8.538;2022-07-25T07:30:30;27.70;99.90
3542;DHT22;1785;47.388;8.538;2022-07-25T07:32:57;27.90;99.90
3542;DHT22;1785;47.388;8.538;2022-07-25T07:35:23;27.80;99.90
3542;DHT22;1785;47.388;8.538;2022-07-25T07:37:51;27.70;99.90
3542;DHT22;1785;47.388;8.538;2022-07-25T07:40:17;27.70;99.90
3542;DHT22;1785;47.388;8.538;2022-07-25T07:42:44;27.80;99.90
3542;DHT22;1785;47.388;8.538;2022-07-25T07:45:12;28.00;99.90
3542;DHT22;1785;47.388;8.538;2022-07-25T07:47:38;28.00;99.90
3542;DHT22;1785;47.388;8.538;2022-07-25T07:50:06;28.10;99.90
3542;DHT22;1785;47.388;8.538;2022-07-25T07:52:32;28.00;99.90
3542;DHT22;1785;47.388;8.538;2022-07-25T07:54:59;27.40;99.90
3542;DHT22;1785;47.388;8.538;2022-07-25T07:57:44;27.40;99.90
3542;DHT22;1785;47.388;8.538;2022-07-25T08:00:10;27.70;99.90
3542;DHT22;1785;47.388;8.538;2022-07-25T08:02:41;28.00;99.90
3542;DHT22;1785;47.388;8.538;2022-07-25T08:05:08;28.30;99.90
3542;DHT22;1785;47.388;8.538;2022-07-25T08:07:34;28.40;99.90
3542;DHT22;1785;47.388;8.538;2022-07-25T08:10:01;28.30;99.90
3542;DHT22;1785;47.388;8.538;2022-07-25T08:12:27;28.30;99.90
3542;DHT22;1785;47.388;8.538;2022-07-25T08:14:53;28.30;99.90
3542;DHT22;1785;47.388;8.538;2022-07-25T08:17:19;28.50;99.90
3542;DHT22;1785;47.388;8.538;2022-07-25T08:19:45;28.50;99.90
3542;DHT22;1785;47.388;8.538;2022-07-25T08:22:11;28.60;99.90
3542;DHT22;1785;47.388;8.538;2022-07-25T08:24:38;28.80;99.90
3542;DHT22;1785;47.388;8.538;2022-07-25T08:27:04;28.80;99.90
3542;DHT22;1785;47.388;8.538;2022-07-25T08:29:30;28.90;99.90
3542;DHT22;1785;47.388;8.538;2022-07-25T08:31:57;29.10;99.90
3542;DHT22;1785;47.388;8.538;2022-07-25T08:34:23;28.60;99.90
3542;DHT22;1785;47.388;8.538;2022-07-25T08:36:49;28.60;99.90
3542;DHT22;1785;47.388;8.538;2022-07-25T08:39:15;28.60;99.90
3542;DHT22;1785;47.388;8.538;2022-07-25T08:41:42;28.80;99.90
3542;DHT22;1785;47.388;8.538;2022-07-25T08:44:09;29.00;99.90
3542;DHT22;1785;47.388;8.538;2022-07-25T08:46:36;28.90;99.90
3542;DHT22;1785;47.388;8.538;2022-07-25T08:49:05;29.10;99.90
3542;DHT22;1785;47.388;8.538;2022-07-25T08:51:32;28.80;99.30
3542;DHT22;1785;47.388;8.538;2022-07-25T08:53:59;28.90;99.00
3542;DHT22;1785;47.388;8.538;2022-07-25T08:56:26;28.90;98.20
3542;DHT22;1785;47.388;8.538;2022-07-25T08:58:52;28.90;98.10
3542;DHT22;1785;47.388;8.538;2022-07-25T09:01:18;29.30;97.70
3542;DHT22;1785;47.388;8.538;2022-07-25T09:03:44;29.40;97.80
3542;DHT22;1785;47.388;8.538;2022-07-25T09:06:16;29.40;97.80
3542;DHT22;1785;47.388;8.538;2022-07-25T09:08:50;29.10;97.60
3542;DHT22;1785;47.388;8.538;2022-07-25T09:11:27;29.30;96.90
3542;DHT22;1785;47.388;8.538;2022-07-25T09:14:00;29.30;97.10
3542;DHT22;1785;47.388;8.538;2022-07-25T09:16:31;29.40;98.00
3542;DHT22;1785;47.388;8.538;2022-07-25T09:19:11;29.50;97.10
3542;DHT22;1785;47.388;8.538;2022-07-25T09:21:38;29.60;96.60
3542;DHT22;1785;47.388;8.538;2022-07-25T09:24:09;29.80;96.70
3542;DHT22;1785;47.388;8.538;2022-07-25T09:26:44;30.00;96.40
3542;DHT22;1785;47.388;8.538;2022-07-25T09:29:15;30.00;96.40
3542;DHT22;1785;47.388;8.538;2022-07-25T09:31:42;30.30;96.50
3542;DHT22;1785;47.388;8.538;2022-07-25T09:34:09;30.40;94.90
3542;DHT22;1785;47.388;8.538;2022-07-25T09:36:36;30.30;94.50
3542;DHT22;1785;47.388;8.538;2022-07-25T09:39:04;30.10;94.40
3542;DHT22;1785;47.388;8.538;2022-07-25T09:41:33;30.10;94.80
3542;DHT22;1785;47.388;8.538;2022-07-25T09:44:00;29.90;94.70
3542;DHT22;1785;47.388;8.538;2022-07-25T09:46:29;30.00;94.20
3542;DHT22;1785;47.388;8.538;2022-07-25T09:48:57;29.90;93.30
3542;DHT22;1785;47.388;8.538;2022-07-25T09:51:24;30.00;92.50
3542;DHT22;1785;47.388;8.538;2022-07-25T09:53:51;30.30;92.60
3542;DHT22;1785;47.388;8.538;2022-07-25T09:56:17;30.50;91.50
3542;DHT22;1785;47.388;8.538;2022-07-25T09:58:43;30.50;91.20
3542;DHT22;1785;47.388;8.538;2022-07-25T10:01:12;30.50;91.20
3542;DHT22;1785;47.388;8.538;2022-07-25T10:03:47;30.60;91.10
3542;DHT22;1785;47.388;8.538;2022-07-25T10:06:20;30.60;90.60
3542;DHT22;1785;47.388;8.538;2022-07-25T10:08:48;30.60;90.20
3542;DHT22;1785;47.388;8.538;2022-07-25T10:11:18;30.60;90.10
3542;DHT22;1785;47.388;8.538;2022-07-25T10:13:45;30.80;88.80
3542;DHT22;1785;47.388;8.538;2022-07-25T10:16:16;30.90;88.60
3542;DHT22;1785;47.388;8.538;2022-07-25T10:18:51;30.90;89.40
3542;DHT22;1785;47.388;8.538;2022-07-25T10:21:18;30.90;87.60
3542;DHT22;1785;47.388;8.538;2022-07-25T10:23:55;30.80;87.30
3542;DHT22;1785;47.388;8.538;2022-07-25T10:26:22;30.60;88.00
3542;DHT22;1785;47.388;8.538;2022-07-25T10:28:52;31.00;88.20
3542;DHT22;1785;47.388;8.538;2022-07-25T10:31:22;31.10;86.80
3542;DHT22;1785;47.388;8.538;2022-07-25T10:33:51;31.20;86.30
3542;DHT22;1785;47.388;8.538;2022-07-25T10:36:19;31.10;85.90
3542;DHT22;1785;47.388;8.538;2022-07-25T10:38:46;31.20;85.60
3542;DHT22;1785;47.388;8.538;2022-07-25T10:41:14;31.40;85.90
3542;DHT22;1785;47.388;8.538;2022-07-25T10:43:43;31.30;84.80
3542;DHT22;1785;47.388;8.538;2022-07-25T10:46:11;31.40;84.90
3542;DHT22;1785;47.388;8.538;2022-07-25T10:48:38;31.40;83.50
3542;DHT22;1785;47.388;8.538;2022-07-25T10:51:06;31.30;83.80
3542;DHT22;1785;47.388;8.538;2022-07-25T10:53:35;31.50;83.20
3542;DHT22;1785;47.388;8.538;2022-07-25T10:56:07;31.50;83.50
3542;DHT22;1785;47.388;8.538;2022-07-25T10:58:45;31.70;82.60
3542;DHT22;1785;47.388;8.538;2022-07-25T11:01:12;31.90;82.20
3542;DHT22;1785;47.388;8.538;2022-07-25T11:03:40;31.90;82.10
3542;DHT22;1785;47.388;8.538;2022-07-25T11:06:06;31.80;82.50
3542;DHT22;1785;47.388;8.538;2022-07-25T11:08:34;32.00;83.00
3542;DHT22;1785;47.388;8.538;2022-07-25T11:11:00;32.00;81.10
3542;DHT22;1785;47.388;8.538;2022-07-25T11:13:26;32.10;81.60
3542;DHT22;1785;47.388;8.538;2022-07-25T11:15:55;32.20;81.60
3542;DHT22;1785;47.388;8.538;2022-07-25T11:18:30;32.30;81.50
3542;DHT22;1785;47.388;8.538;2022-07-25T11:20:58;32.40;80.40
3542;DHT22;1785;47.388;8.538;2022-07-25T11:23:24;32.20;80.90
3542;DHT22;1785;47.388;8.538;2022-07-25T11:25:51;32.50;80.10
3542;DHT22;1785;47.388;8.538;2022-07-25T11:28:17;32.60;80.30
3542;DHT22;1785;47.388;8.538;2022-07-25T11:30:43;32.80;79.50
3542;DHT22;1785;47.388;8.538;2022-07-25T11:33:12;32.80;79.80
3542;DHT22;1785;47.388;8.538;2022-07-25T11:35:40;33.00;79.00
3542;DHT22;1785;47.388;8.538;2022-07-25T11:38:12;33.10;76.40
3542;DHT22;1785;47.388;8.538;2022-07-25T11:40:42;33.00;76.70
3542;DHT22;1785;47.388;8.538;2022-07-25T11:43:18;33.10;75.20
3542;DHT22;1785;47.388;8.538;2022-07-25T11:45:55;33.00;76.50
3542;DHT22;1785;47.388;8.538;2022-07-25T11:48:29;33.30;77.00
3542;DHT22;1785;47.388;8.538;2022-07-25T11:50:55;33.60;76.10
3542;DHT22;1785;47.388;8.538;2022-07-25T11:53:22;33.40;77.30
3542;DHT22;1785;47.388;8.538;2022-07-25T11:55:50;33.20;74.80
3542;DHT22;1785;47.388;8.538;2022-07-25T11:58:17;33.20;76.60
3542;DHT22;1785;47.388;8.538;2022-07-25T12:00:44;33.30;75.60
3542;DHT22;1785;47.388;8.538;2022-07-25T12:03:12;33.30;77.40
3542;DHT22;1785;47.388;8.538;2022-07-25T12:05:39;33.50;77.50
3542;DHT22;1785;47.388;8.538;2022-07-25T12:08:09;33.60;77.60
3542;DHT22;1785;47.388;8.538;2022-07-25T12:10:36;33.90;77.00
3542;DHT22;1785;47.388;8.538;2022-07-25T12:13:03;33.80;76.10
3542;DHT22;1785;47.388;8.538;2022-07-25T12:15:34;33.80;77.00
3542;DHT22;1785;47.388;8.538;2022-07-25T12:18:00;33.90;76.50
3542;DHT22;1785;47.388;8.538;2022-07-25T12:20:29;33.90;75.70
3542;DHT22;1785;47.388;8.538;2022-07-25T12:22:58;34.00;74.50
3542;DHT22;1785;47.388;8.538;2022-07-25T12:25:25;33.90;75.10
3542;DHT22;1785;47.388;8.538;2022-07-25T12:27:54;34.00;75.60
3542;DHT22;1785;47.388;8.538;2022-07-25T12:30:20;34.20;76.50
3542;DHT22;1785;47.388;8.538;2022-07-25T12:32:47;34.40;75.00
3542;DHT22;1785;47.388;8.538;2022-07-25T12:35:14;34.50;73.20
3542;DHT22;1785;47.388;8.538;2022-07-25T12:37:41;34.60;73.00
3542;DHT22;1785;47.388;8.538;2022-07-25T12:40:08;34.40;73.70
3542;DHT22;1785;47.388;8.538;2022-07-25T12:42:34;34.60;74.00
3542;DHT22;1785;47.388;8.538;2022-07-25T12:45:00;34.40;73.60
3542;DHT22;1785;47.388;8.538;2022-07-25T12:47:27;34.50;73.60
3542;DHT22;1785;47.388;8.538;2022-07-25T12:49:54;34.50;73.40
3542;DHT22;1785;47.388;8.538;2022-07-25T12:52:20;34.60;72.10
3542;DHT22;1785;47.388;8.538;2022-07-25T12:54:46;34.50;72.00
3542;DHT22;1785;47.388;8.538;2022-07-25T12:57:13;34.60;72.80
3542;DHT22;1785;47.388;8.538;2022-07-25T12:59:40;34.70;72.00
3542;DHT22;1785;47.388;8.538;2022-07-25T13:02:07;34.90;71.40
3542;DHT22;1785;47.388;8.538;2022-07-25T13:04:33;34.90;71.50
3542;DHT22;1785;47.388;8.538;2022-07-25T13:07:01;35.10;71.80
3542;DHT22;1785;47.388;8.538;2022-07-25T13:09:27;35.20;71.80
3542;DHT22;1785;47.388;8.538;2022-07-25T13:11:54;35.30;71.10
3542;DHT22;1785;47.388;8.538;2022-07-25T13:14:20;35.30;71.60
3542;DHT22;1785;47.388;8.538;2022-07-25T13:16:47;35.30;69.70
3542;DHT22;1785;47.388;8.538;2022-07-25T13:19:14;35.00;66.30
3542;DHT22;1785;47.388;8.538;2022-07-25T13:21:42;34.90;66.60
3542;DHT22;1785;47.388;8.538;2022-07-25T13:24:10;35.00;67.90
3542;DHT22;1785;47.388;8.538;2022-07-25T13:26:37;35.10;66.80
3542;DHT22;1785;47.388;8.538;2022-07-25T13:29:04;35.20;67.60
3542;DHT22;1785;47.388;8.538;2022-07-25T13:31:33;35.20;67.40
3542;DHT22;1785;47.388;8.538;2022-07-25T13:33:59;34.90;68.40
3542;DHT22;1785;47.388;8.538;2022-07-25T13:36:25;35.30;69.40
3542;DHT22;1785;47.388;8.538;2022-07-25T13:38:51;35.70;68.30
3542;DHT22;1785;47.388;8.538;2022-07-25T13:41:18;35.90;66.40
3542;DHT22;1785;47.388;8.538;2022-07-25T13:43:44;35.70;66.50
3542;DHT22;1785;47.388;8.538;2022-07-25T13:46:10;35.80;67.10
3542;DHT22;1785;47.388;8.538;2022-07-25T13:48:36;35.90;66.80
3542;DHT22;1785;47.388;8.538;2022-07-25T13:51:03;36.00;66.10
3542;DHT22;1785;47.388;8.538;2022-07-25T13:53:29;36.10;65.40
3542;DHT22;1785;47.388;8.538;2022-07-25T13:55:55;36.20;65.30
3542;DHT22;1785;47.388;8.538;2022-07-25T13:58:23;36.10;65.50
3542;DHT22;1785;47.388;8.538;2022-07-25T14:00:49;35.90;65.50
3542;DHT22;1785;47.388;8.538;2022-07-25T14:03:15;35.80;65.40
3542;DHT22;1785;47.388;8.538;2022-07-25T14:05:41;35.70;65.30
3542;DHT22;1785;47.388;8.538;2022-07-25T14:08:08;35.80;65.10
3542;DHT22;1785;47.388;8.538;2022-07-25T14:10:34;35.80;65.10
3542;DHT22;1785;47.388;8.538;2022-07-25T14:13:00;35.80;64.90
3542;DHT22;1785;47.388;8.538;2022-07-25T14:15:27;35.80;64.30
3542;DHT22;1785;47.388;8.538;2022-07-25T14:17:53;35.70;64.70
3542;DHT22;1785;47.388;8.538;2022-07-25T14:20:19;35.60;64.50
3542;DHT22;1785;47.388;8.538;2022-07-25T14:22:45;35.70;64.70
3542;DHT22;1785;47.388;8.538;2022-07-25T14:25:11;35.80;64.60
3542;DHT22;1785;47.388;8.538;2022-07-25T14:27:38;36.00;63.30
3542;DHT22;1785;47.388;8.538;2022-07-25T14:30:05;36.10;63.90
3542;DHT22;1785;47.388;8.538;2022-07-25T14:32:34;36.30;64.00
3542;DHT22;1785;47.388;8.538;2022-07-25T14:35:00;36.50;63.60
3542;DHT22;1785;47.388;8.538;2022-07-25T14:37:27;36.30;63.40
3542;DHT22;1785;47.388;8.538;2022-07-25T14:39:55;36.30;63.90
3542;DHT22;1785;47.388;8.538;2022-07-25T14:42:21;36.40;64.20
3542;DHT22;1785;47.388;8.538;2022-07-25T14:44:48;36.40;63.30
3542;DHT22;1785;47.388;8.538;2022-07-25T14:47:14;36.40;63.60
3542;DHT22;1785;47.388;8.538;2022-07-25T14:49:40;36.40;63.50
3542;DHT22;1785;47.388;8.538;2022-07-25T14:52:08;36.50;64.30
3542;DHT22;1785;47.388;8.538;2022-07-25T14:54:34;36.60;63.10
3542;DHT22;1785;47.388;8.538;2022-07-25T14:57:01;36.60;62.60
3542;DHT22;1785;47.388;8.538;2022-07-25T14:59:27;36.10;64.00
3542;DHT22;1785;47.388;8.538;2022-07-25T15:01:53;36.10;66.40
3542;DHT22;1785;47.388;8.538;2022-07-25T15:04:19;35.60;68.30
3542;DHT22;1785;47.388;8.538;2022-07-25T15:06:48;35.70;69.10
3542;DHT22;1785;47.388;8.538;2022-07-25T15:09:14;35.30;69.50
3542;DHT22;1785;47.388;8.538;2022-07-25T15:11:40;35.20;70.50
3542;DHT22;1785;47.388;8.538;2022-07-25T15:14:06;35.00;70.90
3542;DHT22;1785;47.388;8.538;2022-07-25T15:16:32;34.90;71.20
3542;DHT22;1785;47.388;8.538;2022-07-25T15:18:59;35.00;71.00
3542;DHT22;1785;47.388;8.538;2022-07-25T15:21:25;35.10;70.90
3542;DHT22;1785;47.388;8.538;2022-07-25T15:23:52;35.30;71.90
3542;DHT22;1785;47.388;8.538;2022-07-25T15:26:19;35.20;71.40
3542;DHT22;1785;47.388;8.538;2022-07-25T15:28:45;34.90;71.90
3542;DHT22;1785;47.388;8.538;2022-07-25T15:31:11;35.00;72.10
3542;DHT22;1785;47.388;8.538;2022-07-25T15:33:37;35.20;72.10
3542;DHT22;1785;47.388;8.538;2022-07-25T15:36:04;35.20;71.60
3542;DHT22;1785;47.388;8.538;2022-07-25T15:38:30;35.30;71.80
3542;DHT22;1785;47.388;8.538;2022-07-25T15:40:57;35.20;71.20
3542;DHT22;1785;47.388;8.538;2022-07-25T15:43:24;35.10;71.60
3542;DHT22;1785;47.388;8.538;2022-07-25T15:45:51;35.00;71.80
3542;DHT22;1785;47.388;8.538;2022-07-25T15:48:18;35.10;72.20
3542;DHT22;1785;47.388;8.538;2022-07-25T15:50:46;34.90;71.80
3542;DHT22;1785;47.388;8.538;2022-07-25T15:53:13;34.80;72.20
3542;DHT22;1785;47.388;8.538;2022-07-25T15:55:40;35.00;72.00
3542;DHT22;1785;47.388;8.538;2022-07-25T15:58:07;34.90;71.90
3542;DHT22;1785;47.388;8.538;2022-07-25T16:00:34;35.10;72.60